sensor_id;sensor_type;location;lat;lon;timestamp;P1;durP1;ratioP1;P2;durP2;ratioP2
31206;SDS011;17834;52.992;8.856;2023-03-01T00:01:52;32.53;;;14.68;;
31206;SDS011;17834;52.992;8.856;2023-03-01T00:04:18;28.75;;;14.75;;
31206;SDS011;17834;52.992;8.856;2023-03-01T00:06:44;35.05;;;16.13;;
31206;SDS011;17834;52.992;8.856;2023-03-01T00:09:11;30.65;;;15.68;;
31206;SDS011;17834;52.992;8.856;2023-03-01T00:11:37;30.85;;;16.15;;
31206;SDS011;17834;52.992;8.856;2023-03-01T00:14:03;38.42;;;16.38;;
31206;SDS011;17834;52.992;8.856;2023-03-01T00:16:33;33.28;;;15.77;;
31206;SDS011;17834;52.992;8.856;2023-03-01T00:19:00;33.85;;;16.38;;
31206;SDS011;17834;52.992;8.856;2023-03-01T00:21:26;33.15;;;16.02;;
31206;SDS011;17834;52.992;8.856;2023-03-01T00:23:52;33.65;;;16.17;;
31206;SDS011;17834;52.992;8.856;2023-03-01T00:26:19;34.35;;;14.75;;
31206;SDS011;17834;52.992;8.856;2023-03-01T00:28:45;27.40;;;14.90;;
31206;SDS011;17834;52.992;8.856;2023-03-01T00:31:13;33.20;;;15.30;;
31206;SDS011;17834;52.992;8.856;2023-03-01T00:33:39;29.08;;;14.48;;
31206;SDS011;17834;52.992;8.856;2023-03-01T00:36:05;32.67;;;16.45;;
31206;SDS011;17834;52.992;8.856;2023-03-01T00:38:38;30.13;;;15.50;;
31206;SDS011;17834;52.992;8.856;2023-03-01T00:41:05;29.20;;;14.93;;
31206;SDS011;17834;52.992;8.856;2023-03-01T00:43:31;34.42;;;15.20;;
31206;SDS011;17834;52.992;8.856;2023-03-01T00:46:01;31.60;;;14.93;;
31206;SDS011;17834;52.992;8.856;2023-03-01T00:48:27;33.22;;;16.42;;
31206;SDS011;17834;52.992;8.856;2023-03-01T00:50:53;25.13;;;14.45;;
31206;SDS011;17834;52.992;8.856;2023-03-01T00:53:19;30.95;;;16.92;;
31206;SDS011;17834;52.992;8.856;2023-03-01T00:55:45;28.23;;;15.23;;
31206;SDS011;17834;52.992;8.856;2023-03-01T00:58:11;31.48;;;15.90;;
31206;SDS011;17834;52.992;8.856;2023-03-01T01:00:37;32.47;;;14.20;;
31206;SDS011;17834;52.992;8.856;2023-03-01T01:03:03;33.00;;;13.88;;
31206;SDS011;17834;52.992;8.856;2023-03-01T01:05:29;32.10;;;14.57;;
31206;SDS011;17834;52.992;8.856;2023-03-01T01:07:55;32.08;;;14.93;;
31206;SDS011;17834;52.992;8.856;2023-03-01T01:10:21;24.60;;;13.55;;
31206;SDS011;17834;52.992;8.856;2023-03-01T01:12:47;22.30;;;13.18;;
31206;SDS011;17834;52.992;8.856;2023-03-01T01:15:13;26.25;;;13.07;;
31206;SDS011;17834;52.992;8.856;2023-03-01T01:17:41;34.03;;;15.55;;
31206;SDS011;17834;52.992;8.856;2023-03-01T01:20:07;33.63;;;13.07;;
31206;SDS011;17834;52.992;8.856;2023-03-01T01:22:33;22.77;;;12.63;;
31206;SDS011;17834;52.992;8.856;2023-03-01T01:24:59;24.08;;;12.50;;
31206;SDS011;17834;52.992;8.856;2023-03-01T01:27:25;27.35;;;12.77;;
31206;SDS011;17834;52.992;8.856;2023-03-01T01:29:52;22.77;;;13.25;;
31206;SDS011;17834;52.992;8.856;2023-03-01T01:32:18;26.60;;;12.90;;
31206;SDS011;17834;52.992;8.856;2023-03-01T01:34:44;27.75;;;13.48;;
31206;SDS011;17834;52.992;8.856;2023-03-01T01:37:11;26.92;;;13.02;;
31206;SDS011;17834;52.992;8.856;2023-03-01T01:39:37;29.70;;;13.30;;
31206;SDS011;17834;52.992;8.856;2023-03-01T01:42:03;20.77;;;12.63;;
31206;SDS011;17834;52.992;8.856;2023-03-01T01:44:29;27.70;;;12.00;;
31206;SDS011;17834;52.992;8.856;2023-03-01T01:51:47;25.33;;;12.57;;
31206;SDS011;17834;52.992;8.856;2023-03-01T01:54:24;21.58;;;12.50;;
31206;SDS011;17834;52.992;8.856;2023-03-01T01:56:58;25.80;;;12.57;;
31206;SDS011;17834;52.992;8.856;2023-03-01T01:59:26;25.13;;;12.23;;
31206;SDS011;17834;52.992;8.856;2023-03-01T02:01:52;17.88;;;11.55;;
31206;SDS011;17834;52.992;8.856;2023-03-01T02:04:18;26.95;;;12.98;;
31206;SDS011;17834;52.992;8.856;2023-03-01T02:06:48;24.48;;;12.55;;
31206;SDS011;17834;52.992;8.856;2023-03-01T02:09:15;23.10;;;11.45;;
31206;SDS011;17834;52.992;8.856;2023-03-01T02:11:44;20.95;;;11.77;;
31206;SDS011;17834;52.992;8.856;2023-03-01T02:14:10;24.05;;;11.38;;
31206;SDS011;17834;52.992;8.856;2023-03-01T02:16:36;23.25;;;12.82;;
31206;SDS011;17834;52.992;8.856;2023-03-01T02:19:02;31.45;;;11.60;;
31206;SDS011;17834;52.992;8.856;2023-03-01T02:23:55;22.40;;;12.35;;
31206;SDS011;17834;52.992;8.856;2023-03-01T02:26:40;28.70;;;12.90;;
31206;SDS011;17834;52.992;8.856;2023-03-01T02:29:07;19.30;;;10.52;;
31206;SDS011;17834;52.992;8.856;2023-03-01T02:31:34;23.73;;;11.77;;
31206;SDS011;17834;52.992;8.856;2023-03-01T02:34:06;27.25;;;12.75;;
31206;SDS011;17834;52.992;8.856;2023-03-01T02:36:37;39.05;;;13.85;;
31206;SDS011;17834;52.992;8.856;2023-03-01T02:39:05;22.85;;;12.13;;
31206;SDS011;17834;52.992;8.856;2023-03-01T02:41:34;25.23;;;11.95;;
31206;SDS011;17834;52.992;8.856;2023-03-01T02:44:01;23.67;;;12.20;;
31206;SDS011;17834;52.992;8.856;2023-03-01T02:46:27;31.35;;;13.50;;
31206;SDS011;17834;52.992;8.856;2023-03-01T02:48:55;25.52;;;13.00;;
31206;SDS011;17834;52.992;8.856;2023-03-01T02:56:31;28.40;;;11.38;;
31206;SDS011;17834;52.992;8.856;2023-03-01T02:58:57;25.65;;;12.30;;
31206;SDS011;17834;52.992;8.856;2023-03-01T03:01:25;23.80;;;11.90;;
31206;SDS011;17834;52.992;8.856;2023-03-01T03:04:05;23.58;;;12.23;;
31206;SDS011;17834;52.992;8.856;2023-03-01T03:06:32;21.92;;;11.40;;
31206;SDS011;17834;52.992;8.856;2023-03-01T03:08:58;26.13;;;10.60;;
31206;SDS011;17834;52.992;8.856;2023-03-01T03:11:24;23.38;;;11.40;;
31206;SDS011;17834;52.992;8.856;2023-03-01T03:13:50;25.52;;;11.32;;
31206;SDS011;17834;52.992;8.856;2023-03-01T03:16:17;16.50;;;10.30;;
31206;SDS011;17834;52.992;8.856;2023-03-01T03:18:43;17.95;;;9.65;;
31206;SDS011;17834;52.992;8.856;2023-03-01T03:21:09;25.92;;;11.43;;
31206;SDS011;17834;52.992;8.856;2023-03-01T03:23:37;20.58;;;10.32;;
31206;SDS011;17834;52.992;8.856;2023-03-01T03:26:03;21.90;;;10.23;;
31206;SDS011;17834;52.992;8.856;2023-03-01T03:28:29;20.92;;;10.80;;
31206;SDS011;17834;52.992;8.856;2023-03-01T03:30:56;19.58;;;10.00;;
31206;SDS011;17834;52.992;8.856;2023-03-01T03:33:23;19.70;;;9.55;;
31206;SDS011;17834;52.992;8.856;2023-03-01T03:35:49;21.02;;;9.88;;
31206;SDS011;17834;52.992;8.856;2023-03-01T03:38:16;19.35;;;10.05;;
31206;SDS011;17834;52.992;8.856;2023-03-01T03:41:02;25.25;;;9.60;;
31206;SDS011;17834;52.992;8.856;2023-03-01T03:43:29;17.80;;;10.02;;
31206;SDS011;17834;52.992;8.856;2023-03-01T03:45:55;19.17;;;9.48;;
31206;SDS011;17834;52.992;8.856;2023-03-01T03:48:22;21.42;;;9.15;;
31206;SDS011;17834;52.992;8.856;2023-03-01T03:50:50;18.05;;;9.55;;
31206;SDS011;17834;52.992;8.856;2023-03-01T03:53:16;19.73;;;10.35;;
31206;SDS011;17834;52.992;8.856;2023-03-01T03:55:42;22.33;;;9.48;;
31206;SDS011;17834;52.992;8.856;2023-03-01T03:58:09;16.85;;;9.23;;
31206;SDS011;17834;52.992;8.856;2023-03-01T04:00:39;16.27;;;9.63;;
31206;SDS011;17834;52.992;8.856;2023-03-01T04:03:05;19.33;;;9.77;;
31206;SDS011;17834;52.992;8.856;2023-03-01T04:05:32;18.73;;;9.32;;
31206;SDS011;17834;52.992;8.856;2023-03-01T04:07:58;17.98;;;9.73;;
31206;SDS011;17834;52.992;8.856;2023-03-01T04:10:33;18.58;;;9.95;;
31206;SDS011;17834;52.992;8.856;2023-03-01T04:12:59;17.50;;;8.80;;
31206;SDS011;17834;52.992;8.856;2023-03-01T04:15:25;24.45;;;10.30;;
31206;SDS011;17834;52.992;8.856;2023-03-01T04:17:52;20.40;;;10.95;;
31206;SDS011;17834;52.992;8.856;2023-03-01T04:20:22;20.83;;;10.07;;
31206;SDS011;17834;52.992;8.856;2023-03-01T04:22:52;19.48;;;8.73;;
31206;SDS011;17834;52.992;8.856;2023-03-01T04:25:19;17.05;;;8.65;;
31206;SDS011;17834;52.992;8.856;2023-03-01T04:27:45;18.83;;;9.25;;
31206;SDS011;17834;52.992;8.856;2023-03-01T04:30:11;14.70;;;8.63;;
31206;SDS011;17834;52.992;8.856;2023-03-01T04:32:37;16.80;;;8.82;;
31206;SDS011;17834;52.992;8.856;2023-03-01T04:35:03;20.23;;;9.07;;
31206;SDS011;17834;52.992;8.856;2023-03-01T04:37:29;13.95;;;8.45;;
31206;SDS011;17834;52.992;8.856;2023-03-01T04:39:55;18.95;;;8.82;;
31206;SDS011;17834;52.992;8.856;2023-03-01T04:42:21;14.60;;;8.13;;
31206;SDS011;17834;52.992;8.856;2023-03-01T04:44:47;17.50;;;7.97;;
31206;SDS011;17834;52.992;8.856;2023-03-01T04:47:16;17.10;;;8.27;;
31206;SDS011;17834;52.992;8.856;2023-03-01T04:49:42;16.98;;;7.40;;
31206;SDS011;17834;52.992;8.856;2023-03-01T04:52:07;20.02;;;10.23;;
31206;SDS011;17834;52.992;8.856;2023-03-01T04:54:34;15.05;;;9.00;;
31206;SDS011;17834;52.992;8.856;2023-03-01T04:57:01;15.43;;;9.07;;
31206;SDS011;17834;52.992;8.856;2023-03-01T04:59:27;15.43;;;7.85;;
31206;SDS011;17834;52.992;8.856;2023-03-01T05:01:54;18.77;;;8.88;;
31206;SDS011;17834;52.992;8.856;2023-03-01T05:04:25;14.77;;;7.97;;
31206;SDS011;17834;52.992;8.856;2023-03-01T05:06:51;15.95;;;7.65;;
31206;SDS011;17834;52.992;8.856;2023-03-01T05:09:18;14.18;;;8.80;;
31206;SDS011;17834;52.992;8.856;2023-03-01T05:11:44;15.95;;;8.25;;
31206;SDS011;17834;52.992;8.856;2023-03-01T05:14:10;18.80;;;8.43;;
31206;SDS011;17834;52.992;8.856;2023-03-01T05:16:36;16.48;;;8.43;;
31206;SDS011;17834;52.992;8.856;2023-03-01T05:19:02;11.23;;;7.60;;
31206;SDS011;17834;52.992;8.856;2023-03-01T05:21:40;15.20;;;7.90;;
31206;SDS011;17834;52.992;8.856;2023-03-01T05:29:18;12.35;;;7.72;;
31206;SDS011;17834;52.992;8.856;2023-03-01T05:31:49;12.65;;;7.68;;
31206;SDS011;17834;52.992;8.856;2023-03-01T05:34:15;16.90;;;9.05;;
31206;SDS011;17834;52.992;8.856;2023-03-01T05:36:41;14.25;;;7.88;;
31206;SDS011;17834;52.992;8.856;2023-03-01T05:39:07;20.55;;;8.35;;
31206;SDS011;17834;52.992;8.856;2023-03-01T05:41:33;16.85;;;8.77;;
31206;SDS011;17834;52.992;8.856;2023-03-01T05:43:59;19.17;;;8.88;;
31206;SDS011;17834;52.992;8.856;2023-03-01T05:46:25;18.48;;;8.98;;
31206;SDS011;17834;52.992;8.856;2023-03-01T05:48:51;16.20;;;8.65;;
31206;SDS011;17834;52.992;8.856;2023-03-01T05:51:17;15.80;;;9.82;;
31206;SDS011;17834;52.992;8.856;2023-03-01T05:53:43;19.10;;;10.10;;
31206;SDS011;17834;52.992;8.856;2023-03-01T05:56:09;14.07;;;8.25;;
31206;SDS011;17834;52.992;8.856;2023-03-01T05:58:35;19.77;;;9.75;;
31206;SDS011;17834;52.992;8.856;2023-03-01T06:01:03;16.08;;;9.65;;
31206;SDS011;17834;52.992;8.856;2023-03-01T06:03:29;17.67;;;8.40;;
31206;SDS011;17834;52.992;8.856;2023-03-01T06:05:56;16.98;;;9.73;;
31206;SDS011;17834;52.992;8.856;2023-03-01T06:08:22;14.40;;;8.85;;
31206;SDS011;17834;52.992;8.856;2023-03-01T06:10:49;16.65;;;9.45;;
31206;SDS011;17834;52.992;8.856;2023-03-01T06:13:15;12.80;;;8.23;;
31206;SDS011;17834;52.992;8.856;2023-03-01T06:15:41;21.40;;;11.13;;
31206;SDS011;17834;52.992;8.856;2023-03-01T06:18:07;18.55;;;9.40;;
31206;SDS011;17834;52.992;8.856;2023-03-01T06:20:33;15.35;;;8.85;;
31206;SDS011;17834;52.992;8.856;2023-03-01T06:22:59;18.13;;;9.38;;
31206;SDS011;17834;52.992;8.856;2023-03-01T06:25:25;14.57;;;8.50;;
31206;SDS011;17834;52.992;8.856;2023-03-01T06:27:51;20.08;;;8.90;;
31206;SDS011;17834;52.992;8.856;2023-03-01T06:30:19;15.82;;;8.73;;
31206;SDS011;17834;52.992;8.856;2023-03-01T06:32:46;14.32;;;8.30;;
31206;SDS011;17834;52.992;8.856;2023-03-01T06:35:12;10.75;;;7.20;;
31206;SDS011;17834;52.992;8.856;2023-03-01T06:37:39;21.30;;;8.95;;
31206;SDS011;17834;52.992;8.856;2023-03-01T06:40:06;17.67;;;9.10;;
31206;SDS011;17834;52.992;8.856;2023-03-01T06:42:33;16.55;;;8.88;;
31206;SDS011;17834;52.992;8.856;2023-03-01T06:44:59;18.80;;;9.38;;
31206;SDS011;17834;52.992;8.856;2023-03-01T06:47:25;20.08;;;9.25;;
31206;SDS011;17834;52.992;8.856;2023-03-01T06:49:51;18.02;;;9.50;;
31206;SDS011;17834;52.992;8.856;2023-03-01T06:52:17;25.08;;;9.85;;
31206;SDS011;17834;52.992;8.856;2023-03-01T06:54:43;18.25;;;10.40;;
31206;SDS011;17834;52.992;8.856;2023-03-01T06:57:09;24.02;;;11.35;;
31206;SDS011;17834;52.992;8.856;2023-03-01T06:59:35;23.65;;;11.02;;
31206;SDS011;17834;52.992;8.856;2023-03-01T07:02:01;21.00;;;11.05;;
31206;SDS011;17834;52.992;8.856;2023-03-01T07:04:27;20.23;;;11.40;;
31206;SDS011;17834;52.992;8.856;2023-03-01T07:06:56;22.30;;;10.95;;
31206;SDS011;17834;52.992;8.856;2023-03-01T07:09:22;22.90;;;11.13;;
31206;SDS011;17834;52.992;8.856;2023-03-01T07:11:48;23.30;;;9.80;;
31206;SDS011;17834;52.992;8.856;2023-03-01T07:14:14;22.13;;;10.68;;
31206;SDS011;17834;52.992;8.856;2023-03-01T07:16:40;21.40;;;10.75;;
31206;SDS011;17834;52.992;8.856;2023-03-01T07:19:06;25.48;;;12.02;;
31206;SDS011;17834;52.992;8.856;2023-03-01T07:21:32;18.35;;;10.35;;
31206;SDS011;17834;52.992;8.856;2023-03-01T07:23:58;23.77;;;12.07;;
31206;SDS011;17834;52.992;8.856;2023-03-01T07:26:24;23.08;;;11.80;;
31206;SDS011;17834;52.992;8.856;2023-03-01T07:28:49;18.45;;;10.98;;
31206;SDS011;17834;52.992;8.856;2023-03-01T07:31:15;24.25;;;11.55;;
31206;SDS011;17834;52.992;8.856;2023-03-01T07:33:41;23.67;;;11.63;;
31206;SDS011;17834;52.992;8.856;2023-03-01T07:36:07;24.67;;;12.18;;
31206;SDS011;17834;52.992;8.856;2023-03-01T07:38:34;22.73;;;11.90;;
31206;SDS011;17834;52.992;8.856;2023-03-01T07:41:01;21.98;;;11.25;;
31206;SDS011;17834;52.992;8.856;2023-03-01T07:43:28;23.80;;;12.23;;
31206;SDS011;17834;52.992;8.856;2023-03-01T07:45:54;27.77;;;13.45;;
31206;SDS011;17834;52.992;8.856;2023-03-01T07:48:20;34.28;;;15.68;;
31206;SDS011;17834;52.992;8.856;2023-03-01T07:50:45;31.40;;;15.68;;
31206;SDS011;17834;52.992;8.856;2023-03-01T07:53:12;33.35;;;16.42;;
31206;SDS011;17834;52.992;8.856;2023-03-01T07:55:38;29.00;;;15.45;;
31206;SDS011;17834;52.992;8.856;2023-03-01T07:58:04;33.83;;;16.67;;
31206;SDS011;17834;52.992;8.856;2023-03-01T08:00:30;28.13;;;14.80;;
31206;SDS011;17834;52.992;8.856;2023-03-01T08:02:58;24.48;;;13.18;;
31206;SDS011;17834;52.992;8.856;2023-03-01T08:05:24;27.42;;;15.10;;
31206;SDS011;17834;52.992;8.856;2023-03-01T08:07:50;23.55;;;11.98;;
31206;SDS011;17834;52.992;8.856;2023-03-01T08:10:16;23.98;;;12.52;;
31206;SDS011;17834;52.992;8.856;2023-03-01T08:12:42;24.92;;;12.68;;
31206;SDS011;17834;52.992;8.856;2023-03-01T08:15:08;29.17;;;11.80;;
31206;SDS011;17834;52.992;8.856;2023-03-01T08:17:34;22.65;;;11.85;;
31206;SDS011;17834;52.992;8.856;2023-03-01T08:20:00;53.28;;;24.88;;
31206;SDS011;17834;52.992;8.856;2023-03-01T08:22:28;29.23;;;13.52;;
31206;SDS011;17834;52.992;8.856;2023-03-01T08:24:54;20.05;;;11.55;;
31206;SDS011;17834;52.992;8.856;2023-03-01T08:27:20;17.05;;;11.25;;
31206;SDS011;17834;52.992;8.856;2023-03-01T08:29:46;16.85;;;10.15;;
31206;SDS011;17834;52.992;8.856;2023-03-01T08:32:12;20.10;;;10.57;;
31206;SDS011;17834;52.992;8.856;2023-03-01T08:34:38;17.38;;;10.10;;
31206;SDS011;17834;52.992;8.856;2023-03-01T08:37:04;15.60;;;9.82;;
31206;SDS011;17834;52.992;8.856;2023-03-01T08:39:30;16.45;;;10.02;;
31206;SDS011;17834;52.992;8.856;2023-03-01T08:41:56;14.25;;;9.25;;
31206;SDS011;17834;52.992;8.856;2023-03-01T08:44:22;20.80;;;10.00;;
31206;SDS011;17834;52.992;8.856;2023-03-01T08:46:49;16.27;;;9.48;;
31206;SDS011;17834;52.992;8.856;2023-03-01T08:49:18;15.27;;;9.48;;
31206;SDS011;17834;52.992;8.856;2023-03-01T08:51:44;18.10;;;9.80;;
31206;SDS011;17834;52.992;8.856;2023-03-01T08:54:12;19.20;;;10.00;;
31206;SDS011;17834;52.992;8.856;2023-03-01T08:56:39;17.05;;;9.60;;
31206;SDS011;17834;52.992;8.856;2023-03-01T08:59:05;20.85;;;10.88;;
31206;SDS011;17834;52.992;8.856;2023-03-01T09:01:31;19.35;;;9.95;;
31206;SDS011;17834;52.992;8.856;2023-03-01T09:03:57;20.60;;;10.65;;
31206;SDS011;17834;52.992;8.856;2023-03-01T09:06:23;15.27;;;9.50;;
31206;SDS011;17834;52.992;8.856;2023-03-01T09:08:50;17.27;;;8.57;;
31206;SDS011;17834;52.992;8.856;2023-03-01T09:11:20;17.67;;;9.60;;
31206;SDS011;17834;52.992;8.856;2023-03-01T09:13:46;19.38;;;9.55;;
31206;SDS011;17834;52.992;8.856;2023-03-01T09:16:13;14.60;;;8.93;;
31206;SDS011;17834;52.992;8.856;2023-03-01T09:18:40;18.60;;;10.82;;
31206;SDS011;17834;52.992;8.856;2023-03-01T09:21:09;13.35;;;7.45;;
31206;SDS011;17834;52.992;8.856;2023-03-01T09:23:36;13.38;;;7.35;;
31206;SDS011;17834;52.992;8.856;2023-03-01T09:26:04;12.15;;;6.88;;
31206;SDS011;17834;52.992;8.856;2023-03-01T09:28:30;12.85;;;6.30;;
31206;SDS011;17834;52.992;8.856;2023-03-01T09:30:59;11.20;;;5.82;;
31206;SDS011;17834;52.992;8.856;2023-03-01T09:33:26;11.15;;;6.78;;
31206;SDS011;17834;52.992;8.856;2023-03-01T09:35:58;11.57;;;6.00;;
31206;SDS011;17834;52.992;8.856;2023-03-01T09:38:24;14.75;;;7.10;;
31206;SDS011;17834;52.992;8.856;2023-03-01T09:40:50;11.70;;;5.97;;
31206;SDS011;17834;52.992;8.856;2023-03-01T09:43:27;9.35;;;5.82;;
31206;SDS011;17834;52.992;8.856;2023-03-01T09:45:55;15.20;;;7.25;;
31206;SDS011;17834;52.992;8.856;2023-03-01T09:48:23;14.82;;;7.22;;
31206;SDS011;17834;52.992;8.856;2023-03-01T09:50:50;14.05;;;7.10;;
31206;SDS011;17834;52.992;8.856;2023-03-01T09:53:18;12.90;;;6.50;;
31206;SDS011;17834;52.992;8.856;2023-03-01T09:55:44;12.75;;;6.85;;
31206;SDS011;17834;52.992;8.856;2023-03-01T10:00:57;14.18;;;8.07;;
31206;SDS011;17834;52.992;8.856;2023-03-01T10:03:33;18.20;;;9.40;;
31206;SDS011;17834;52.992;8.856;2023-03-01T10:08:53;17.67;;;8.00;;
31206;SDS011;17834;52.992;8.856;2023-03-01T10:11:22;16.05;;;7.88;;
31206;SDS011;17834;52.992;8.856;2023-03-01T10:13:58;13.77;;;7.72;;
31206;SDS011;17834;52.992;8.856;2023-03-01T10:16:28;14.70;;;7.88;;
31206;SDS011;17834;52.992;8.856;2023-03-01T10:18:59;19.00;;;7.60;;
31206;SDS011;17834;52.992;8.856;2023-03-01T10:21:26;11.70;;;6.43;;
31206;SDS011;17834;52.992;8.856;2023-03-01T10:23:53;16.60;;;7.70;;
31206;SDS011;17834;52.992;8.856;2023-03-01T10:31:22;12.52;;;6.85;;
31206;SDS011;17834;52.992;8.856;2023-03-01T10:33:53;16.23;;;7.72;;
31206;SDS011;17834;52.992;8.856;2023-03-01T10:36:20;14.55;;;7.93;;
31206;SDS011;17834;52.992;8.856;2023-03-01T10:38:48;15.15;;;7.70;;
31206;SDS011;17834;52.992;8.856;2023-03-01T10:41:17;20.17;;;8.50;;
31206;SDS011;17834;52.992;8.856;2023-03-01T10:49:12;21.52;;;10.50;;
31206;SDS011;17834;52.992;8.856;2023-03-01T10:51:39;19.77;;;9.55;;
31206;SDS011;17834;52.992;8.856;2023-03-01T10:54:06;18.45;;;9.43;;
31206;SDS011;17834;52.992;8.856;2023-03-01T10:56:47;16.40;;;8.88;;
31206;SDS011;17834;52.992;8.856;2023-03-01T10:59:22;19.50;;;9.13;;
31206;SDS011;17834;52.992;8.856;2023-03-01T11:01:49;15.23;;;8.57;;
31206;SDS011;17834;52.992;8.856;2023-03-01T11:04:26;18.95;;;8.45;;
31206;SDS011;17834;52.992;8.856;2023-03-01T11:06:59;14.82;;;7.53;;
31206;SDS011;17834;52.992;8.856;2023-03-01T11:09:25;13.30;;;7.38;;
31206;SDS011;17834;52.992;8.856;2023-03-01T11:11:59;13.13;;;7.60;;
31206;SDS011;17834;52.992;8.856;2023-03-01T11:14:27;9.65;;;6.50;;
31206;SDS011;17834;52.992;8.856;2023-03-01T11:17:01;14.38;;;7.03;;
31206;SDS011;17834;52.992;8.856;2023-03-01T11:19:27;13.48;;;6.15;;
31206;SDS011;17834;52.992;8.856;2023-03-01T11:22:13;15.07;;;6.88;;
31206;SDS011;17834;52.992;8.856;2023-03-01T11:24:43;11.95;;;5.78;;
31206;SDS011;17834;52.992;8.856;2023-03-01T11:27:21;10.93;;;5.60;;
31206;SDS011;17834;52.992;8.856;2023-03-01T11:29:51;10.05;;;5.72;;
31206;SDS011;17834;52.992;8.856;2023-03-01T11:32:18;13.32;;;5.80;;
31206;SDS011;17834;52.992;8.856;2023-03-01T11:34:47;11.57;;;5.60;;
31206;SDS011;17834;52.992;8.856;2023-03-01T11:37:21;10.18;;;5.55;;
31206;SDS011;17834;52.992;8.856;2023-03-01T11:39:52;9.98;;;4.97;;
31206;SDS011;17834;52.992;8.856;2023-03-01T11:42:20;11.98;;;5.95;;
31206;SDS011;17834;52.992;8.856;2023-03-01T11:44:51;12.07;;;5.78;;
31206;SDS011;17834;52.992;8.856;2023-03-01T11:52:17;12.07;;;6.53;;
31206;SDS011;17834;52.992;8.856;2023-03-01T12:00:07;10.70;;;6.10;;
31206;SDS011;17834;52.992;8.856;2023-03-01T12:07:59;13.38;;;6.63;;
31206;SDS011;17834;52.992;8.856;2023-03-01T12:10:28;15.32;;;6.43;;
31206;SDS011;17834;52.992;8.856;2023-03-01T12:13:08;13.70;;;6.53;;
31206;SDS011;17834;52.992;8.856;2023-03-01T12:15:58;11.50;;;6.53;;
31206;SDS011;17834;52.992;8.856;2023-03-01T12:23:24;11.10;;;6.35;;
31206;SDS011;17834;52.992;8.856;2023-03-01T12:25:57;14.60;;;7.30;;
31206;SDS011;17834;52.992;8.856;2023-03-01T12:28:27;15.13;;;7.22;;
31206;SDS011;17834;52.992;8.856;2023-03-01T12:33:26;20.65;;;9.20;;
31206;SDS011;17834;52.992;8.856;2023-03-01T12:38:41;14.45;;;7.40;;
31206;SDS011;17834;52.992;8.856;2023-03-01T12:41:22;16.75;;;7.30;;
31206;SDS011;17834;52.992;8.856;2023-03-01T12:43:58;16.98;;;8.30;;
31206;SDS011;17834;52.992;8.856;2023-03-01T12:49:15;13.90;;;7.93;;
31206;SDS011;17834;52.992;8.856;2023-03-01T12:51:54;14.52;;;7.03;;
31206;SDS011;17834;52.992;8.856;2023-03-01T12:54:28;10.32;;;6.68;;
31206;SDS011;17834;52.992;8.856;2023-03-01T12:56:56;15.77;;;7.22;;
31206;SDS011;17834;52.992;8.856;2023-03-01T12:59:29;13.85;;;7.03;;
31206;SDS011;17834;52.992;8.856;2023-03-01T13:02:02;15.20;;;6.95;;
31206;SDS011;17834;52.992;8.856;2023-03-01T13:04:38;15.90;;;7.45;;
31206;SDS011;17834;52.992;8.856;2023-03-01T13:07:13;15.20;;;7.43;;
31206;SDS011;17834;52.992;8.856;2023-03-01T13:15:16;10.23;;;6.03;;
31206;SDS011;17834;52.992;8.856;2023-03-01T13:20:34;10.80;;;6.10;;
31206;SDS011;17834;52.992;8.856;2023-03-01T13:23:24;12.48;;;6.68;;
31206;SDS011;17834;52.992;8.856;2023-03-01T13:26:03;14.23;;;6.32;;
31206;SDS011;17834;52.992;8.856;2023-03-01T13:33:44;11.60;;;5.97;;
31206;SDS011;17834;52.992;8.856;2023-03-01T13:36:11;12.65;;;6.47;;
31206;SDS011;17834;52.992;8.856;2023-03-01T13:38:48;13.50;;;6.40;;
31206;SDS011;17834;52.992;8.856;2023-03-01T13:46:46;12.68;;;6.50;;
31206;SDS011;17834;52.992;8.856;2023-03-01T13:49:14;13.65;;;7.05;;
31206;SDS011;17834;52.992;8.856;2023-03-01T13:51:40;14.52;;;7.38;;
31206;SDS011;17834;52.992;8.856;2023-03-01T13:54:09;13.48;;;7.13;;
31206;SDS011;17834;52.992;8.856;2023-03-01T13:56:37;16.45;;;7.53;;
31206;SDS011;17834;52.992;8.856;2023-03-01T13:59:13;10.65;;;6.85;;
31206;SDS011;17834;52.992;8.856;2023-03-01T14:01:39;13.68;;;6.82;;
31206;SDS011;17834;52.992;8.856;2023-03-01T14:04:22;12.50;;;7.40;;
31206;SDS011;17834;52.992;8.856;2023-03-01T14:06:48;13.25;;;7.53;;
31206;SDS011;17834;52.992;8.856;2023-03-01T14:09:18;13.32;;;7.65;;
31206;SDS011;17834;52.992;8.856;2023-03-01T14:12:02;16.60;;;7.57;;
31206;SDS011;17834;52.992;8.856;2023-03-01T14:19:40;11.88;;;6.32;;
31206;SDS011;17834;52.992;8.856;2023-03-01T14:22:16;12.93;;;6.72;;
31206;SDS011;17834;52.992;8.856;2023-03-01T14:24:48;11.75;;;6.53;;
31206;SDS011;17834;52.992;8.856;2023-03-01T14:27:14;13.25;;;6.55;;
31206;SDS011;17834;52.992;8.856;2023-03-01T14:29:41;13.00;;;7.00;;
31206;SDS011;17834;52.992;8.856;2023-03-01T14:32:08;15.13;;;6.65;;
31206;SDS011;17834;52.992;8.856;2023-03-01T14:34:34;12.15;;;6.50;;
31206;SDS011;17834;52.992;8.856;2023-03-01T14:39:56;12.10;;;6.82;;
31206;SDS011;17834;52.992;8.856;2023-03-01T14:42:23;12.77;;;7.57;;
31206;SDS011;17834;52.992;8.856;2023-03-01T14:44:50;13.27;;;6.78;;
31206;SDS011;17834;52.992;8.856;2023-03-01T14:47:25;12.13;;;6.88;;
31206;SDS011;17834;52.992;8.856;2023-03-01T14:49:53;11.95;;;6.18;;
31206;SDS011;17834;52.992;8.856;2023-03-01T14:52:21;11.93;;;6.28;;
31206;SDS011;17834;52.992;8.856;2023-03-01T14:54:50;14.27;;;6.70;;
31206;SDS011;17834;52.992;8.856;2023-03-01T14:57:18;13.55;;;6.60;;
31206;SDS011;17834;52.992;8.856;2023-03-01T14:59:46;13.77;;;6.78;;
31206;SDS011;17834;52.992;8.856;2023-03-01T15:02:17;14.25;;;7.35;;
31206;SDS011;17834;52.992;8.856;2023-03-01T15:04:48;12.82;;;6.70;;
31206;SDS011;17834;52.992;8.856;2023-03-01T15:07:14;12.05;;;6.40;;
31206;SDS011;17834;52.992;8.856;2023-03-01T15:09:41;14.57;;;7.10;;
31206;SDS011;17834;52.992;8.856;2023-03-01T15:14:51;13.50;;;6.90;;
31206;SDS011;17834;52.992;8.856;2023-03-01T15:17:20;13.93;;;6.97;;
31206;SDS011;17834;52.992;8.856;2023-03-01T15:19:46;16.13;;;7.07;;
31206;SDS011;17834;52.992;8.856;2023-03-01T15:22:14;11.30;;;6.43;;
31206;SDS011;17834;52.992;8.856;2023-03-01T15:24:41;11.55;;;6.68;;
31206;SDS011;17834;52.992;8.856;2023-03-01T15:27:17;12.18;;;7.13;;
31206;SDS011;17834;52.992;8.856;2023-03-01T15:29:53;13.05;;;6.60;;
31206;SDS011;17834;52.992;8.856;2023-03-01T15:32:31;10.95;;;6.25;;
31206;SDS011;17834;52.992;8.856;2023-03-01T15:34:57;12.05;;;6.13;;
31206;SDS011;17834;52.992;8.856;2023-03-01T15:40:19;11.40;;;6.50;;
31206;SDS011;17834;52.992;8.856;2023-03-01T15:42:45;15.00;;;6.93;;
31206;SDS011;17834;52.992;8.856;2023-03-01T15:47:43;12.80;;;6.13;;
31206;SDS011;17834;52.992;8.856;2023-03-01T15:50:18;9.77;;;5.93;;
31206;SDS011;17834;52.992;8.856;2023-03-01T15:52:44;12.05;;;7.03;;
31206;SDS011;17834;52.992;8.856;2023-03-01T15:57:42;14.57;;;6.82;;
31206;SDS011;17834;52.992;8.856;2023-03-01T16:00:10;13.82;;;7.22;;
31206;SDS011;17834;52.992;8.856;2023-03-01T16:02:38;16.83;;;7.57;;
31206;SDS011;17834;52.992;8.856;2023-03-01T16:05:04;11.48;;;6.43;;
31206;SDS011;17834;52.992;8.856;2023-03-01T16:07:30;13.02;;;7.18;;
31206;SDS011;17834;52.992;8.856;2023-03-01T16:09:56;14.60;;;7.80;;
31206;SDS011;17834;52.992;8.856;2023-03-01T16:12:22;15.48;;;7.50;;
31206;SDS011;17834;52.992;8.856;2023-03-01T16:14:49;18.67;;;9.13;;